createdAt,value
2023-02-02T00:02:00.719Z,3.40
2023-02-02T00:04:33.003Z,3.40
2023-02-02T00:07:00.808Z,3.30
2023-02-02T00:09:30.006Z,3.40
2023-02-02T00:11:58.080Z,3.40
2023-02-02T00:14:25.186Z,3.40
2023-02-02T00:16:53.816Z,3.40
2023-02-02T00:19:24.662Z,3.40
2023-02-02T00:21:51.366Z,3.40
2023-02-02T00:24:18.848Z,3.40
2023-02-02T00:26:48.066Z,3.40
2023-02-02T00:29:18.310Z,3.40
2023-02-02T00:31:45.737Z,3.40
2023-02-02T00:34:13.895Z,3.40
2023-02-02T00:36:41.457Z,3.30
2023-02-02T00:39:09.451Z,3.30
2023-02-02T00:41:36.102Z,3.30
2023-02-02T00:44:21.282Z,3.30
2023-02-02T00:46:48.047Z,3.30
2023-02-02T00:49:14.637Z,3.30
2023-02-02T00:51:41.345Z,3.30
2023-02-02T00:54:08.020Z,3.30
2023-02-02T00:56:34.809Z,3.20
2023-02-02T00:59:01.603Z,3.20
2023-02-02T01:01:28.745Z,3.20
2023-02-02T01:03:55.479Z,3.20
2023-02-02T01:06:23.022Z,3.20
2023-02-02T01:08:49.746Z,3.20
2023-02-02T01:11:16.830Z,3.20
2023-02-02T01:13:43.928Z,3.20
2023-02-02T01:16:11.275Z,3.20
2023-02-02T01:18:38.440Z,3.20
2023-02-02T01:21:07.746Z,3.20
2023-02-02T01:23:36.741Z,3.20
2023-02-02T01:26:07.334Z,3.20
2023-02-02T01:28:34.888Z,3.20
2023-02-02T01:31:13.599Z,3.20
2023-02-02T01:33:40.917Z,3.20
2023-02-02T01:36:10.996Z,3.20
2023-02-02T01:38:37.811Z,3.20
2023-02-02T01:41:04.823Z,3.30
2023-02-02T01:44:01.845Z,3.20
2023-02-02T01:46:37.087Z,3.20
2023-02-02T01:49:19.520Z,3.20
2023-02-02T01:51:57.695Z,3.20
2023-02-02T01:54:38.321Z,3.20
2023-02-02T01:57:12.114Z,3.20
2023-02-02T01:59:39.153Z,3.20
2023-02-02T02:02:06.704Z,3.20
2023-02-02T02:04:34.625Z,3.20
2023-02-02T02:07:04.418Z,3.20
2023-02-02T02:09:31.498Z,3.20
2023-02-02T02:11:59.025Z,3.20
2023-02-02T02:14:44.688Z,3.20
2023-02-02T02:17:42.866Z,3.20
2023-02-02T02:20:39.624Z,3.20
2023-02-02T02:24:14.587Z,3.20
2023-02-02T02:27:17.746Z,3.20
2023-02-02T02:30:05.524Z,3.20
2023-02-02T02:32:35.605Z,3.20
2023-02-02T02:35:21.260Z,3.30
2023-02-02T02:38:02.310Z,3.30
2023-02-02T02:40:37.515Z,3.30
2023-02-02T02:43:16.187Z,3.20
2023-02-02T02:45:44.574Z,3.30
2023-02-02T02:48:12.528Z,3.30
2023-02-02T02:50:39.485Z,3.30
2023-02-02T02:53:15.381Z,3.30
2023-02-02T02:56:29.588Z,3.20
2023-02-02T02:59:11.539Z,3.30
2023-02-02T03:01:55.635Z,3.30
2023-02-02T03:04:57.541Z,3.30
2023-02-02T03:07:33.928Z,3.30
2023-02-02T03:10:02.467Z,3.30
2023-02-02T03:12:29.147Z,3.30
2023-02-02T03:14:55.785Z,3.20
2023-02-02T03:17:22.863Z,3.20
2023-02-02T03:19:49.575Z,3.20
2023-02-02T03:22:16.171Z,3.20
2023-02-02T03:24:42.870Z,3.20
2023-02-02T03:27:09.575Z,3.20
2023-02-02T03:29:37.032Z,3.20
2023-02-02T03:32:03.847Z,3.30
2023-02-02T03:34:30.502Z,3.30
2023-02-02T03:36:57.124Z,3.30
2023-02-02T03:39:23.902Z,3.30
2023-02-02T03:41:50.692Z,3.30
2023-02-02T03:44:17.342Z,3.40
2023-02-02T03:46:43.964Z,3.40
2023-02-02T03:49:10.769Z,3.30
2023-02-02T03:51:37.307Z,3.30
2023-02-02T03:54:04.895Z,3.30
2023-02-02T03:56:31.537Z,3.20
2023-02-02T03:58:58.238Z,3.20
2023-02-02T04:01:28.913Z,3.10
2023-02-02T04:03:57.015Z,3.10
2023-02-02T04:06:24.639Z,3.10
2023-02-02T04:08:51.414Z,3.00
2023-02-02T04:11:18.113Z,3.00
2023-02-02T04:13:44.970Z,3.00
2023-02-02T04:16:12.664Z,3.00
2023-02-02T04:18:39.461Z,2.90
2023-02-02T04:21:07.161Z,2.90
2023-02-02T04:23:34.195Z,2.90
2023-02-02T04:26:01.337Z,2.90
2023-02-02T04:28:28.602Z,2.90
2023-02-02T04:30:56.380Z,2.90
2023-02-02T04:33:25.776Z,2.90
2023-02-02T04:35:52.489Z,2.90
2023-02-02T04:38:19.217Z,2.90
2023-02-02T04:40:47.951Z,2.90
2023-02-02T04:43:15.079Z,2.80
2023-02-02T04:45:42.320Z,2.90
2023-02-02T04:48:09.613Z,2.90
2023-02-02T04:50:36.262Z,2.90
2023-02-02T04:53:03.980Z,2.80
2023-02-02T04:55:30.745Z,2.90
2023-02-02T04:57:57.287Z,2.90
2023-02-02T05:00:23.976Z,2.90
2023-02-02T05:02:50.613Z,2.90
2023-02-02T05:05:17.429Z,2.90
2023-02-02T05:07:44.084Z,2.90
2023-02-02T05:10:11.481Z,3.00
2023-02-02T05:12:38.117Z,3.10
2023-02-02T05:15:05.620Z,3.10
2023-02-02T05:17:33.189Z,3.10
2023-02-02T05:19:59.933Z,3.10
2023-02-02T05:22:26.890Z,3.10
2023-02-02T05:24:53.589Z,3.00
2023-02-02T05:27:20.991Z,3.00
2023-02-02T05:29:48.121Z,3.00
2023-02-02T05:32:14.780Z,3.00
2023-02-02T05:34:41.529Z,3.00
2023-02-02T05:37:08.122Z,3.00
2023-02-02T05:39:34.879Z,3.00
2023-02-02T05:42:01.432Z,3.00
2023-02-02T05:44:28.162Z,3.10
2023-02-02T05:46:54.941Z,3.10
2023-02-02T05:49:21.670Z,3.10
2023-02-02T05:51:49.417Z,3.10
2023-02-02T05:54:20.207Z,3.10
2023-02-02T05:56:48.487Z,3.10
2023-02-02T05:59:15.525Z,3.10
2023-02-02T06:01:42.384Z,3.10
2023-02-02T06:04:09.237Z,3.20
2023-02-02T06:06:37.781Z,3.20
2023-02-02T06:09:05.263Z,3.20
2023-02-02T06:11:31.991Z,3.20
2023-02-02T06:13:58.627Z,3.30
2023-02-02T06:16:25.490Z,3.20
2023-02-02T06:18:52.622Z,3.30
2023-02-02T06:21:19.905Z,3.30
2023-02-02T06:23:46.778Z,3.30
2023-02-02T06:26:14.083Z,3.30
2023-02-02T06:28:41.288Z,3.30
2023-02-02T06:31:10.876Z,3.30
2023-02-02T06:33:38.149Z,3.30
2023-02-02T06:36:06.438Z,3.30
2023-02-02T06:38:33.585Z,3.30
2023-02-02T06:41:01.542Z,3.30
2023-02-02T06:43:31.127Z,3.30
2023-02-02T06:45:58.503Z,3.30
2023-02-02T06:48:26.424Z,3.30
2023-02-02T06:50:54.009Z,3.30
2023-02-02T06:53:23.614Z,3.40
2023-02-02T06:55:57.528Z,3.40
2023-02-02T06:58:24.218Z,3.30
2023-02-02T07:00:50.926Z,3.30
2023-02-02T07:03:18.096Z,3.40
2023-02-02T07:05:44.830Z,3.40
2023-02-02T07:08:11.478Z,3.40
2023-02-02T07:11:14.112Z,3.30
2023-02-02T07:13:25.277Z,3.30
2023-02-02T07:15:51.986Z,3.30
2023-02-02T07:18:18.626Z,3.30
2023-02-02T07:20:45.244Z,3.30
2023-02-02T07:23:12.017Z,3.30
2023-02-02T07:25:38.619Z,3.40
2023-02-02T07:28:05.575Z,3.40
2023-02-02T07:30:33.252Z,3.40
2023-02-02T07:33:00.495Z,3.40
2023-02-02T07:35:27.468Z,3.40
2023-02-02T07:37:55.256Z,3.40
2023-02-02T07:40:22.352Z,3.40
2023-02-02T07:42:49.367Z,3.40
2023-02-02T07:45:27.095Z,3.40
2023-02-02T07:47:58.558Z,3.50
2023-02-02T07:50:26.387Z,3.50
2023-02-02T07:52:53.567Z,3.50
2023-02-02T07:55:20.589Z,3.50
2023-02-02T07:57:47.243Z,3.50
2023-02-02T08:00:14.346Z,3.50
2023-02-02T08:02:41.021Z,3.50
2023-02-02T08:05:07.965Z,3.50
2023-02-02T08:07:35.015Z,3.50
2023-02-02T08:10:01.779Z,3.60
2023-02-02T08:12:28.433Z,3.60
2023-02-02T08:14:55.129Z,3.60
2023-02-02T08:17:23.250Z,3.60
2023-02-02T08:19:49.882Z,3.60
2023-02-02T08:22:17.886Z,3.60
2023-02-02T08:24:45.546Z,3.70
2023-02-02T08:27:12.163Z,3.70
2023-02-02T08:29:39.114Z,3.70
2023-02-02T08:32:05.814Z,3.70
2023-02-02T08:34:36.748Z,3.70
2023-02-02T08:37:04.243Z,3.70
2023-02-02T08:39:30.888Z,3.70
2023-02-02T08:41:57.909Z,3.70
2023-02-02T08:44:26.928Z,3.70
2023-02-02T08:47:09.688Z,3.70
2023-02-02T08:49:36.632Z,3.70
2023-02-02T08:52:03.334Z,3.70
2023-02-02T08:54:29.950Z,3.70
2023-02-02T08:56:56.857Z,3.70
2023-02-02T08:59:23.509Z,3.80
2023-02-02T09:01:50.248Z,3.70
2023-02-02T09:04:16.947Z,3.80
2023-02-02T09:06:44.078Z,3.80
2023-02-02T09:09:14.245Z,3.80
2023-02-02T09:11:43.207Z,3.80
2023-02-02T09:14:12.290Z,3.80
2023-02-02T09:16:39.347Z,3.90
2023-02-02T09:19:06.780Z,3.90
2023-02-02T09:21:37.212Z,3.90
2023-02-02T09:24:10.695Z,3.90
2023-02-02T09:26:38.671Z,3.90
2023-02-02T09:29:07.164Z,3.90
2023-02-02T09:31:36.386Z,3.90
2023-02-02T09:34:11.408Z,4.00
2023-02-02T09:36:39.134Z,4.00
2023-02-02T09:39:06.964Z,4.00
2023-02-02T09:41:39.624Z,4.00
2023-02-02T09:44:18.553Z,4.00
2023-02-02T09:47:01.186Z,4.10
2023-02-02T09:49:39.166Z,4.10
2023-02-02T09:52:16.226Z,4.10
2023-02-02T09:54:46.648Z,4.20
2023-02-02T09:57:24.622Z,4.20
2023-02-02T09:59:53.948Z,4.30
2023-02-02T10:02:55.490Z,4.30
2023-02-02T10:05:26.770Z,4.30
2023-02-02T10:07:58.747Z,4.30
2023-02-02T10:10:35.235Z,4.30
2023-02-02T10:13:10.218Z,4.30
2023-02-02T10:15:45.756Z,4.30
2023-02-02T10:18:28.321Z,4.30
2023-02-02T10:20:59.614Z,4.30
2023-02-02T10:23:30.152Z,4.30
2023-02-02T10:26:20.014Z,4.30
2023-02-02T10:29:09.048Z,4.40
2023-02-02T10:32:01.112Z,4.40
2023-02-02T10:34:55.548Z,4.40
2023-02-02T10:37:45.169Z,4.40
2023-02-02T10:40:27.824Z,4.50
2023-02-02T10:43:34.612Z,4.50
2023-02-02T10:46:04.130Z,4.50
2023-02-02T10:48:35.759Z,4.50
2023-02-02T10:51:15.624Z,4.50
2023-02-02T10:53:53.227Z,4.50
2023-02-02T10:56:26.413Z,4.50
2023-02-02T10:59:27.213Z,4.60
2023-02-02T11:01:53.987Z,4.60
2023-02-02T11:04:40.549Z,4.60
2023-02-02T11:07:07.367Z,4.60
2023-02-02T11:09:39.461Z,4.60
2023-02-02T11:12:24.093Z,4.60
2023-02-02T11:15:01.719Z,4.60
2023-02-02T11:17:29.055Z,4.60
2023-02-02T11:19:56.088Z,4.60
2023-02-02T11:22:34.011Z,4.50
2023-02-02T11:25:02.031Z,4.50
2023-02-02T11:27:28.584Z,4.50
2023-02-02T11:29:56.601Z,4.50
2023-02-02T11:32:29.737Z,4.50
2023-02-02T11:35:02.578Z,4.50
2023-02-02T11:37:29.858Z,4.50
2023-02-02T11:40:16.481Z,4.50
2023-02-02T11:42:49.962Z,4.60
2023-02-02T11:45:23.409Z,4.60
2023-02-02T11:47:50.432Z,4.60
2023-02-02T11:50:20.934Z,4.70
2023-02-02T11:52:47.634Z,4.70
2023-02-02T11:55:23.263Z,4.70
2023-02-02T11:58:09.972Z,4.70
2023-02-02T12:00:48.167Z,4.70
2023-02-02T12:03:47.347Z,4.80
2023-02-02T12:06:18.237Z,4.80
2023-02-02T12:08:45.502Z,4.80
2023-02-02T12:11:20.943Z,4.80
2023-02-02T12:13:47.512Z,4.80
2023-02-02T12:16:32.676Z,4.80
2023-02-02T12:19:05.195Z,4.80
2023-02-02T12:21:40.374Z,4.80
2023-02-02T12:24:18.632Z,4.80
2023-02-02T12:26:48.675Z,4.80
2023-02-02T12:29:41.775Z,4.80
2023-02-02T12:32:16.315Z,4.80
2023-02-02T12:34:42.893Z,4.80
2023-02-02T12:37:15.625Z,4.80
2023-02-02T12:39:55.263Z,4.80
2023-02-02T12:42:40.866Z,4.80
2023-02-02T12:45:10.309Z,4.80
2023-02-02T12:48:03.357Z,4.80
2023-02-02T12:50:31.643Z,4.80
2023-02-02T12:53:22.787Z,4.70
2023-02-02T12:55:57.112Z,4.80
2023-02-02T12:58:36.047Z,4.80
2023-02-02T13:01:20.554Z,4.80
2023-02-02T13:04:07.501Z,4.90
2023-02-02T13:06:47.910Z,4.80
2023-02-02T13:09:20.212Z,4.80
2023-02-02T13:11:50.543Z,4.80
2023-02-02T13:14:23.963Z,4.90
2023-02-02T13:16:53.190Z,4.90
2023-02-02T13:19:19.774Z,4.90
2023-02-02T13:21:46.995Z,5.00
2023-02-02T13:24:15.352Z,5.00
2023-02-02T13:26:43.797Z,5.00
2023-02-02T13:29:10.468Z,5.00
2023-02-02T13:31:56.253Z,5.00
2023-02-02T13:34:25.105Z,5.00
2023-02-02T13:37:02.541Z,5.00
2023-02-02T13:39:33.913Z,5.00
2023-02-02T13:42:02.792Z,5.00
2023-02-02T13:44:35.366Z,5.00
2023-02-02T13:47:09.045Z,4.90
2023-02-02T13:49:40.163Z,4.90
2023-02-02T13:52:12.396Z,4.90
2023-02-02T13:54:47.452Z,4.90
2023-02-02T13:57:26.401Z,4.90
2023-02-02T14:00:02.226Z,4.80
2023-02-02T14:02:34.510Z,4.80
2023-02-02T14:05:03.632Z,4.90
2023-02-02T14:07:33.287Z,4.90
2023-02-02T14:10:00.106Z,4.90
2023-02-02T14:12:31.825Z,4.90
2023-02-02T14:14:58.895Z,4.90
2023-02-02T14:17:25.440Z,5.00
2023-02-02T14:19:58.617Z,4.90
2023-02-02T14:22:45.709Z,4.90
2023-02-02T14:25:41.247Z,4.90
2023-02-02T14:28:12.492Z,4.90
2023-02-02T14:30:39.908Z,4.90
2023-02-02T14:33:21.539Z,4.90
2023-02-02T14:35:48.094Z,4.90
2023-02-02T14:38:24.959Z,4.90
2023-02-02T14:41:00.249Z,4.90
2023-02-02T14:43:45.116Z,4.80
2023-02-02T14:46:14.835Z,4.80
2023-02-02T14:49:01.841Z,4.80
2023-02-02T14:51:29.550Z,4.80
2023-02-02T14:54:00.998Z,4.80
2023-02-02T14:56:39.146Z,4.80
2023-02-02T14:59:07.579Z,4.80
2023-02-02T15:01:35.461Z,4.80
2023-02-02T15:04:37.772Z,4.80
2023-02-02T15:07:22.311Z,4.80
2023-02-02T15:09:49.685Z,4.80
2023-02-02T15:12:17.285Z,4.80
2023-02-02T15:14:52.997Z,4.80
2023-02-02T15:17:20.184Z,4.80
2023-02-02T15:19:50.154Z,4.80
2023-02-02T15:22:26.769Z,4.80
2023-02-02T15:24:54.344Z,4.80
2023-02-02T15:27:22.730Z,4.80
2023-02-02T15:29:52.565Z,4.80
2023-02-02T15:32:22.074Z,4.80
2023-02-02T15:34:49.979Z,4.80
2023-02-02T15:37:20.540Z,4.80
2023-02-02T15:39:51.523Z,4.80
2023-02-02T15:42:39.555Z,4.80
2023-02-02T15:45:07.170Z,4.80
2023-02-02T15:47:36.661Z,4.70
2023-02-02T15:50:04.605Z,4.70
2023-02-02T15:52:37.997Z,4.70
2023-02-02T15:55:18.404Z,4.70
2023-02-02T15:57:45.011Z,4.70
2023-02-02T16:00:27.280Z,4.70
2023-02-02T16:03:00.024Z,4.70
2023-02-02T16:05:29.697Z,4.70
2023-02-02T16:08:05.732Z,4.70
2023-02-02T16:10:33.357Z,4.70
2023-02-02T16:12:59.895Z,4.70
2023-02-02T16:15:28.195Z,4.70
2023-02-02T16:18:02.155Z,4.70
2023-02-02T16:20:30.940Z,4.60
2023-02-02T16:23:02.100Z,4.60
2023-02-02T16:25:34.449Z,4.50
2023-02-02T16:28:01.154Z,4.50
2023-02-02T16:33:19.569Z,4.60
2023-02-02T16:35:46.295Z,4.50
2023-02-02T16:38:14.392Z,4.50
2023-02-02T16:40:41.161Z,4.50
2023-02-02T16:43:21.129Z,4.50
2023-02-02T16:45:56.623Z,4.50
2023-02-02T16:48:56.390Z,4.40
2023-02-02T16:51:33.739Z,4.40
2023-02-02T16:54:13.468Z,4.30
2023-02-02T16:56:49.830Z,4.30
2023-02-02T16:59:26.336Z,4.30
2023-02-02T17:01:57.492Z,4.40
2023-02-02T17:04:31.030Z,4.30
2023-02-02T17:07:13.249Z,4.40
2023-02-02T17:09:42.306Z,4.40
2023-02-02T17:12:34.879Z,4.40
2023-02-02T17:15:17.100Z,4.40
2023-02-02T17:17:45.210Z,4.40
2023-02-02T17:20:13.186Z,4.40
2023-02-02T17:22:42.464Z,4.40
2023-02-02T17:25:17.960Z,4.30
2023-02-02T17:27:45.554Z,4.40
2023-02-02T17:30:17.561Z,4.30
2023-02-02T17:32:44.507Z,4.40
2023-02-02T17:35:16.585Z,4.30
2023-02-02T17:37:43.443Z,4.30
2023-02-02T17:40:14.592Z,4.30
2023-02-02T17:42:42.867Z,4.30
2023-02-02T17:45:28.242Z,4.30
2023-02-02T17:47:55.094Z,4.30
2023-02-02T17:50:22.046Z,4.20
2023-02-02T17:52:49.767Z,4.20
2023-02-02T17:55:20.226Z,4.20
2023-02-02T17:57:48.241Z,4.10
2023-02-02T18:00:15.789Z,4.10
2023-02-02T18:02:43.269Z,4.10
2023-02-02T18:05:11.042Z,4.10
2023-02-02T18:07:37.791Z,4.10
2023-02-02T18:10:05.970Z,4.10
2023-02-02T18:12:34.877Z,4.10
2023-02-02T18:15:05.933Z,4.00
2023-02-02T18:17:34.143Z,4.00
2023-02-02T18:20:00.953Z,4.00
2023-02-02T18:22:27.770Z,4.00
2023-02-02T18:24:54.570Z,3.90
2023-02-02T18:27:21.410Z,4.00
2023-02-02T18:29:48.105Z,3.90
2023-02-02T18:32:16.006Z,3.90
2023-02-02T18:34:42.701Z,3.90
2023-02-02T18:37:09.612Z,3.90
2023-02-02T18:39:36.414Z,4.00
2023-02-02T18:42:03.098Z,3.90
2023-02-02T18:44:31.526Z,3.90
2023-02-02T18:46:58.295Z,3.90
2023-02-02T18:49:24.862Z,3.90
2023-02-02T18:51:51.685Z,3.90
2023-02-02T18:54:18.316Z,3.90
2023-02-02T18:56:45.065Z,3.90
2023-02-02T18:59:11.736Z,3.90
2023-02-02T19:01:38.545Z,3.80
2023-02-02T19:04:05.249Z,3.90
2023-02-02T19:06:50.767Z,3.90
2023-02-02T19:09:17.584Z,3.90
2023-02-02T19:11:45.515Z,3.90
2023-02-02T19:14:16.904Z,3.90
2023-02-02T19:16:48.248Z,3.90
2023-02-02T19:19:26.761Z,3.90
2023-02-02T19:21:56.389Z,3.90
2023-02-02T19:24:26.594Z,3.80
2023-02-02T19:26:53.863Z,3.80
2023-02-02T19:29:25.789Z,3.80
2023-02-02T19:32:07.408Z,3.80
2023-02-02T19:34:34.460Z,3.70
2023-02-02T19:37:38.671Z,3.70
2023-02-02T19:40:13.351Z,3.70
2023-02-02T19:43:15.092Z,3.70
2023-02-02T19:45:41.783Z,3.60
2023-02-02T19:48:17.515Z,3.60
2023-02-02T19:50:44.777Z,3.60
2023-02-02T19:53:23.819Z,3.60
2023-02-02T19:55:52.303Z,3.60
2023-02-02T19:58:28.780Z,3.60
2023-02-02T20:00:57.804Z,3.60
2023-02-02T20:03:28.536Z,3.60
2023-02-02T20:05:57.078Z,3.60
2023-02-02T20:08:31.762Z,3.60
2023-02-02T20:11:01.432Z,3.70
2023-02-02T20:13:41.367Z,3.70
2023-02-02T20:16:14.723Z,3.70
2023-02-02T20:18:48.517Z,3.70
2023-02-02T20:21:32.547Z,3.70
2023-02-02T20:23:59.332Z,3.70
2023-02-02T20:26:33.509Z,3.80
2023-02-02T20:29:14.138Z,3.70
2023-02-02T20:31:40.915Z,3.80
2023-02-02T20:34:22.934Z,3.80
2023-02-02T20:36:50.698Z,3.80
2023-02-02T20:39:35.962Z,3.80
2023-02-02T20:42:03.552Z,3.80
2023-02-02T20:44:32.512Z,3.80
2023-02-02T20:47:00.552Z,3.80
2023-02-02T20:49:28.867Z,3.80
2023-02-02T20:51:57.264Z,3.90
2023-02-02T20:54:24.973Z,3.80
2023-02-02T20:56:52.441Z,3.90
2023-02-02T20:59:22.282Z,3.80
2023-02-02T21:01:52.979Z,3.80
2023-02-02T21:04:20.775Z,3.80
2023-02-02T21:06:48.810Z,3.80
2023-02-02T21:09:16.250Z,3.70
2023-02-02T21:11:43.505Z,3.70
2023-02-02T21:14:10.265Z,3.70
2023-02-02T21:16:36.921Z,3.70
2023-02-02T21:19:03.736Z,3.60
2023-02-02T21:21:30.485Z,3.60
2023-02-02T21:23:57.405Z,3.60
2023-02-02T21:26:27.066Z,3.60
2023-02-02T21:28:53.865Z,3.60
2023-02-02T21:31:20.576Z,3.60
2023-02-02T21:33:50.441Z,3.60
2023-02-02T21:36:28.034Z,3.60
2023-02-02T21:39:10.959Z,3.60
2023-02-02T21:41:37.964Z,3.60
2023-02-02T21:44:12.592Z,3.70
2023-02-02T21:46:39.813Z,3.70
2023-02-02T21:49:19.730Z,3.70
2023-02-02T21:51:46.409Z,3.70
2023-02-02T21:54:27.778Z,3.80
2023-02-02T21:56:55.297Z,3.80
2023-02-02T21:59:24.654Z,3.90
2023-02-02T22:01:52.443Z,3.80
2023-02-02T22:04:22.345Z,3.90
2023-02-02T22:06:53.929Z,3.80
2023-02-02T22:09:25.019Z,3.80
2023-02-02T22:11:59.478Z,3.80
2023-02-02T22:14:45.110Z,3.80
2023-02-02T22:17:22.484Z,3.80
2023-02-02T22:19:50.430Z,3.80
2023-02-02T22:22:18.674Z,3.80
2023-02-02T22:24:47.749Z,3.80
2023-02-02T22:27:22.967Z,3.80
2023-02-02T22:29:52.899Z,3.80
2023-02-02T22:32:19.533Z,3.80
2023-02-02T22:34:46.270Z,3.80
2023-02-02T22:37:12.932Z,3.80
2023-02-02T22:39:42.620Z,3.80
2023-02-02T22:42:10.604Z,3.80
2023-02-02T22:44:37.319Z,3.80
2023-02-02T22:47:04.009Z,3.90
2023-02-02T22:49:30.678Z,3.80
2023-02-02T22:51:57.432Z,3.90
2023-02-02T22:54:24.001Z,3.80
2023-02-02T22:56:50.690Z,3.90
2023-02-02T22:59:17.294Z,3.90
2023-02-02T23:01:43.967Z,3.90
2023-02-02T23:04:10.672Z,3.90
2023-02-02T23:06:37.266Z,3.90
2023-02-02T23:09:03.941Z,3.90
2023-02-02T23:11:30.628Z,3.80
2023-02-02T23:13:57.248Z,3.90
2023-02-02T23:16:24.029Z,3.90
2023-02-02T23:18:50.753Z,3.90
2023-02-02T23:21:17.507Z,3.90
2023-02-02T23:23:44.152Z,3.90
2023-02-02T23:26:10.800Z,3.90
2023-02-02T23:28:37.491Z,4.00
2023-02-02T23:31:04.311Z,4.00
2023-02-02T23:33:31.182Z,4.00
2023-02-02T23:35:57.814Z,4.00
2023-02-02T23:38:24.442Z,4.00
2023-02-02T23:40:51.123Z,4.00
2023-02-02T23:43:17.810Z,4.00
2023-02-02T23:45:44.477Z,4.00
2023-02-02T23:48:13.020Z,4.00
2023-02-02T23:50:39.952Z,4.00
2023-02-02T23:53:08.879Z,4.00
2023-02-02T23:55:36.106Z,4.00
2023-02-02T23:58:03.142Z,4.00
